Flight Track Log - Related Links

Times and Time Zones

All times are in EDT time to prevent confusion due to time zone crossing. See the EJA396 flight status page for this flight to view local times or setup timezone preferences in your user account.

Time Position Orientation Groundspeed Altitude Reporting Facility
EDT Latitude Longitude Course Direction KTS MPH feet Rate Location/Type
Fri 04:30:39 PM 40.8789 -72.5500 166° South 172 198 3,500  Level Boston Center
Fri 04:31:39 PM 40.8122 -72.5278 166° South 159 183 6,700 3,700 Climbing Boston Center
Fri 04:32:39 PM 40.7289 -72.4922 162° South 222 255 10,900 3,591 Climbing Boston Center
Fri 04:33:51 PM 40.6456 -72.4428 156° South 287 330 14,600 3,682 Climbing Boston Center
Fri 04:34:51 PM 40.5372 -72.3772 155° Southeast 339 390 19,000 3,314 Climbing Boston Center
Fri 04:36:43 PM 40.4200 -72.2078 132° Southeast 343 395 24,100 2,541 Climbing New York Center
Fri 04:37:41 PM 40.3797 -72.0764 112° Southeast 362 417 26,200 1,765 Climbing New York Center
Fri 04:38:42 PM 40.3375 -71.9339 111° Southeast 384 442 27,600 1,339 Climbing New York Center
Fri 04:39:42 PM 40.2911 -71.7861 112° Southeast 422 486 28,900 1,140 Climbing New York Center
Fri 04:40:43 PM 40.2422 -71.6331 113° Southeast 437 503 29,900 555 Climbing New York Center
Fri 04:41:41 PM 40.1914 -71.4722 112° Southeast 456 525 30,000 51 Climbing New York Center
Fri 04:42:41 PM 40.1381 -71.3089 113° Southeast 478 550 30,000  Level New York Center
Fri 04:43:42 PM 40.0847 -71.1428 113° Southeast 485 558 30,000  Level New York Center
Fri 04:44:42 PM 40.0331 -70.9744 112° Southeast 495 570 30,000  Level New York Center
Fri 04:45:43 PM 39.9792 -70.8092 113° Southeast 495 570 30,000  Level New York Center
Fri 04:46:43 PM 39.9250 -70.6439 113° Southeast 495 570 30,000  Level New York Center
Fri 04:47:43 PM 39.8747 -70.4789 112° Southeast 495 570 30,000  Level New York Center
Fri 04:48:41 PM 39.8306 -70.3467 113° Southeast 495 570 30,000  Level New York Center
Fri 04:49:42 PM 39.7631 -70.1528 114° Southeast 488 562 30,000  Level New York Center
Fri 04:50:42 PM 39.7100 -69.9939 113° Southeast 494 568 30,000  Level New York Center
Fri 04:51:43 PM 39.6656 -69.8567 113° Southeast 482 555 30,000  Level New York Center
Fri 04:52:40 PM 39.6142 -69.6931 112° Southeast 477 549 30,000  Level New York Center
Fri 04:53:41 PM 39.5606 -69.5350 114° Southeast 477 549 30,000  Level New York Center
Fri 04:54:42 PM 39.5067 -69.3797 114° Southeast 477 549 30,000  Level New York Center
Fri 04:55:43 PM 39.4528 -69.2142 113° Southeast 482 555 30,000  Level New York Center
Fri 04:56:43 PM 39.3964 -69.0647 116° Southeast 476 548 30,000  Level New York Center
Fri 04:57:40 PM 39.3442 -68.9050 113° Southeast 484 557 30,000  Level New York Center
Fri 04:58:41 PM 39.2894 -68.7456 114° Southeast 477 549 30,000  Level New York Center
Fri 04:59:42 PM 39.2347 -68.5942 115° Southeast 477 549 30,000  Level New York Center
Fri 05:00:42 PM 39.1797 -68.4350 114° Southeast 483 556 30,000  Level New York Center
Fri 05:01:43 PM 39.1286 -68.2761 112° Southeast 483 556 30,000  Level New York Center
Fri 05:02:41 PM 39.0711 -68.1228 116° Southeast 478 550 30,000  Level New York Center
Fri 05:03:41 PM 39.0156 -67.9700 115° Southeast 483 556 30,000  Level New York Center
Fri 05:04:42 PM 38.9575 -67.8144 116° Southeast 478 550 30,000  Level New York Center
Fri 05:05:43 PM 38.9036 -67.6567 114° Southeast 478 550 30,000  Level New York Center
Fri 05:07:08 PM 38.8833 -67.5667 157° South 427 491 30,000  Level New York Oceanic (ODAPS)
Fri 05:13:00 PM 38.0053 -67.0932 157° South 427 491 30,000  Level FlightAware Transoceanic
Fri 05:14:00 PM 37.8954 -67.0348 157° South 427 491 30,000  Level FlightAware Transoceanic
Fri 05:15:00 PM 37.7855 -66.9766 157° South 427 491 30,000  Level FlightAware Transoceanic
Fri 05:16:00 PM 37.6756 -66.9186 157° South 427 491 30,000  Level FlightAware Transoceanic
Fri 05:17:00 PM 37.5656 -66.8607 157° South 427 491 30,000  Level FlightAware Transoceanic
Fri 05:18:00 PM 37.4556 -66.8030 157° South 427 491 30,000  Level FlightAware Transoceanic
Fri 05:19:00 PM 37.3456 -66.7455 157° South 427 491 30,000  Level FlightAware Transoceanic
Fri 05:20:00 PM 37.2355 -66.6881 157° South 427 491 30,000  Level FlightAware Transoceanic
Fri 05:21:00 PM 37.1254 -66.6310 158° South 427 491 30,000  Level FlightAware Transoceanic
Fri 05:22:00 PM 37.0153 -66.5740 158° South 427 491 30,000  Level FlightAware Transoceanic
Fri 05:23:00 PM 36.9052 -66.5171 158° South 427 491 30,000  Level FlightAware Transoceanic
Fri 05:24:00 PM 36.7950 -66.4604 158° South 427 491 30,000  Level FlightAware Transoceanic
Fri 05:25:00 PM 36.6848 -66.4039 158° South 427 491 30,000  Level FlightAware Transoceanic
Fri 05:26:00 PM 36.5746 -66.3475 158° South 427 491 30,000  Level FlightAware Transoceanic
Fri 05:27:00 PM 36.4644 -66.2913 158° South 427 491 30,000  Level FlightAware Transoceanic
Fri 05:28:00 PM 36.3541 -66.2353 158° South 427 491 30,000  Level FlightAware Transoceanic
Fri 05:29:00 PM 36.2438 -66.1794 158° South 427 491 30,000  Level FlightAware Transoceanic
Fri 05:30:00 PM 36.1335 -66.1236 158° South 427 491 30,000  Level FlightAware Transoceanic
Fri 05:31:00 PM 36.0231 -66.0681 158° South 427 491 30,000  Level FlightAware Transoceanic
Fri 05:32:00 PM 35.9128 -66.0126 158° South 427 491 30,000  Level FlightAware Transoceanic
Fri 05:33:00 PM 35.8024 -65.9574 158° South 427 491 30,000  Level FlightAware Transoceanic
Fri 05:34:00 PM 35.6919 -65.9023 158° South 427 491 30,000  Level FlightAware Transoceanic
Fri 05:35:00 PM 35.5815 -65.8473 158° South 427 491 30,000  Level FlightAware Transoceanic
Fri 05:36:00 PM 35.4710 -65.7925 158° South 427 491 30,000  Level FlightAware Transoceanic
Fri 05:37:00 PM 35.3605 -65.7378 158° South 427 491 30,000  Level FlightAware Transoceanic
Fri 05:37:59 PM 35.2500 -65.6833 164° South 415 478 30,000  Level New York Oceanic (ODAPS)
Fri 05:38:00 PM 35.2500 -65.6833 164° South 427 491 30,000  Level FlightAware Transoceanic
Fri 05:39:00 PM 35.1300 -65.6403 164° South 427 491 30,000  Level FlightAware Transoceanic
Fri 05:40:00 PM 35.0100 -65.5974 164° South 427 491 30,000  Level FlightAware Transoceanic
Fri 05:41:00 PM 34.8900 -65.5546 164° South 427 491 30,000  Level FlightAware Transoceanic
Fri 05:42:00 PM 34.7700 -65.5119 164° South 427 491 30,000  Level FlightAware Transoceanic
Fri 05:43:00 PM 34.6500 -65.4694 164° South 427 491 30,000  Level FlightAware Transoceanic
Fri 05:44:00 PM 34.4745 -65.4074 164° South 415 478 30,000  Level FlightAware Transoceanic
Fri 05:45:00 PM 34.3637 -65.3684 164° South 415 478 30,000  Level FlightAware Transoceanic
Fri 05:46:00 PM 34.2528 -65.3295 164° South 415 478 30,000  Level FlightAware Transoceanic
Fri 05:47:00 PM 34.1420 -65.2907 164° South 415 478 30,000  Level FlightAware Transoceanic
Fri 05:48:00 PM 34.0311 -65.2520 164° South 415 478 30,000  Level FlightAware Transoceanic
Fri 05:49:00 PM 33.9202 -65.2134 164° South 415 478 30,000  Level FlightAware Transoceanic
Fri 05:50:00 PM 33.8093 -65.1749 164° South 415 478 30,000  Level FlightAware Transoceanic
Fri 05:51:00 PM 33.6984 -65.1365 164° South 415 478 30,000  Level FlightAware Transoceanic
Fri 05:52:00 PM 33.5875 -65.0982 164° South 415 478 30,000  Level FlightAware Transoceanic
Fri 05:53:00 PM 33.4766 -65.0600 164° South 415 478 30,000 -4,762 Level FlightAware Transoceanic
Fri 05:53:03 PM 35.2500 -65.6833 160° South 418 481 25,000  Descending New York Oceanic (ODAPS)
Fri 05:54:00 PM 33.3657 -65.0219 164° South 415 478 30,000 2,564 Climbing FlightAware Transoceanic
Fri 05:55:00 PM 33.2547 -64.9839 164° South 415 478 30,000 -7,229 Level FlightAware Transoceanic
Fri 05:55:23 PM 35.2500 -65.6833 160° South 418 481 20,000  Descending New York Oceanic (ODAPS)
Fri 05:56:00 PM 33.1437 -64.9460 164° South 415 478 30,000 6,186 Climbing FlightAware Transoceanic
Fri 05:57:00 PM 33.0328 -64.9082 164° South 415 478 30,000 -8,036 Level FlightAware Transoceanic
Fri 05:57:52 PM 35.2500 -65.6833 160° South 418 481 15,000  Descending New York Oceanic (ODAPS)
Fri 05:58:00 PM 32.9218 -64.8705 164° South 415 478 30,000 8,824 Climbing FlightAware Transoceanic
Fri 05:59:00 PM 32.9558 -64.6724 160° South 418 481 25,000 -2,500 Descending FlightAware Transoceanic
Fri 06:00:00 PM 32.8514 -64.6277 160° South 418 481 25,000 -10,465 Level FlightAware Transoceanic
Fri 06:00:26 PM 35.2500 -65.6833 160° South 418 481 10,000 -5,000 Descending New York Oceanic (ODAPS)
Fri 06:01:00 PM 33.0704 -64.7215 160° South 418 481 20,000  Climbing FlightAware Transoceanic
Fri 06:01:59 PM 35.2500 -65.6833 161° South 418 481 10,000  Descending New York Oceanic (ODAPS)
Fri 06:02:00 PM 32.9794 -64.6825 160° South 418 481 20,000 9,836 Climbing FlightAware Transoceanic
Fri 06:03:00 PM 32.8885 -64.6435 160° South 418 481 20,000 -8,481 Level FlightAware Transoceanic
Fri 06:03:44 PM 35.2500 -65.6833 161° South 418 481 5,300 -19,149 Descending New York Oceanic (ODAPS)
Fri 06:03:47 PM 35.2500 -65.6833 161° South 418 481 5,000 36,375 Descending New York Oceanic (ODAPS)
Fri 06:04:00 PM 32.7975 -64.6047 160° South 418 481 15,000 8,219 Climbing FlightAware Transoceanic
Fri 06:05:00 PM 32.7064 -64.5659 160° South 418 481 15,000 -2,500 Level FlightAware Transoceanic
Fri 06:06:00 PM 32.6154 -64.5272 160° South 418 481 10,000 -2,500 Descending FlightAware Transoceanic
Fri 06:07:00 PM 32.5244 -64.4885 160° South 418 481 10,000  Level FlightAware Transoceanic
Fri 06:08:00 PM 34.7200 -65.4529 160° South  Level FlightAware Approximate
Fri 06:09:00 PM 34.6298 -65.4125 160° South  Level FlightAware Approximate
Fri 06:10:00 PM 34.6882 -65.4365 160° South  Level FlightAware Approximate
Fri 06:11:00 PM 34.5979 -65.3964 160° South  Level FlightAware Approximate
Fri 06:12:00 PM 34.5076 -65.3563 160° South  Level FlightAware Approximate
Fri 06:13:00 PM 34.4173 -65.3164 160° South  Level FlightAware Approximate
Fri 06:14:00 PM 34.3270 -65.2765 160° South  Level FlightAware Approximate

Login

Don't have an account? Register now (free) for customized features, flight alerts, and more!